Time;durP1;ratioP1;P1;durP2;ratioP2;P2;SDS_P1;SDS_P2;PMS_P1;PMS_P2;Temp;Humidity;BMP_temperature;BMP_pressure;BME280_temperature;BME280_humidity;BME280_pressure;Samples;Min_cycle;Max_cycle;Signal;HPM_P1;HPM_P2
2023/03/20 00:00:33;;;;;;;6.30;2.70;;;8.20;99.90;;;;;;4995970;28;20445;-77
2023/03/20 00:03:01;;;;;;;6.17;5.63;;;8.10;99.90;;;;;;4995955;28;20499;-77
2023/03/20 00:05:30;;;;;;;6.20;5.70;;;8.10;99.90;;;;;;4994558;28;20457;-81
2023/03/20 00:07:57;;;;;;;4.43;4.03;;;;;;;;;;4995941;28;20812;-78
2023/03/20 00:10:27;;;;;;;3.97;3.67;;;;;;;;;;4995826;28;20458;-82
2023/03/20 00:12:56;;;;;;;5.70;4.33;;;;;;;;;;4995759;28;20857;-82
2023/03/20 00:15:26;;;;;;;5.30;4.40;;;8.10;99.90;;;;;;4995745;28;20449;-81
2023/03/20 00:17:55;;;;;;;6.47;5.80;;;;;;;;;;4995597;28;20452;-77
2023/03/20 00:20:22;;;;;;;5.30;4.53;;;;;;;;;;4994292;28;20972;-77
2023/03/20 00:22:50;;;;;;;12.67;10.70;;;;;;;;;;4995273;28;20508;-77
2023/03/20 00:25:18;;;;;;;34.33;24.00;;;8.10;99.90;;;;;;4995498;28;20454;-78
2023/03/20 00:27:45;;;;;;;37.03;29.80;;;;;;;;;;4995440;28;20959;-78
2023/03/20 00:30:21;;;;;;;31.97;29.10;;;;;;;;;;4995370;28;20813;-77
2023/03/20 00:32:48;;;;;;;41.03;36.53;;;;;;;;;;4995400;28;20886;-77
2023/03/20 00:35:19;;;;;;;84.47;50.53;;;;;;;;;;4994211;28;21067;-82
2023/03/20 00:37:46;;;;;;;127.70;61.70;;;;;;;;;;4995262;28;20941;-77
2023/03/20 00:40:13;;;;;;;118.90;58.93;;;;;;;;;;4995186;28;20452;-83
2023/03/20 00:42:41;;;;;;;75.53;51.03;;;;;;;;;;4995081;28;20492;-77
2023/03/20 00:45:11;;;;;;;40.63;36.10;;;;;;;;;;4994111;28;20450;-77
2023/03/20 00:47:40;;;;;;;42.73;36.20;;;8.00;99.90;;;;;;4995082;28;20454;-78
2023/03/20 00:50:07;;;;;;;53.40;41.70;;;;;;;;;;4993804;28;20453;-77
2023/03/20 00:52:36;;;;;;;51.90;39.23;;;;;;;;;;4994892;28;20521;-77
2023/03/20 00:55:03;;;;;;;52.53;40.50;;;;;;;;;;4994868;28;20965;-78
2023/03/20 00:57:34;;;;;;;55.57;43.00;;;8.00;99.90;;;;;;4994837;28;20457;-77
2023/03/20 01:00:05;;;;;;;84.90;54.90;;;8.00;99.90;;;;;;4994901;28;20465;-77
2023/03/20 01:02:32;;;;;;;71.80;51.80;;;8.00;99.90;;;;;;4994695;28;20504;-77
2023/03/20 01:05:00;;;;;;;33.73;29.80;;;;;;;;;;4993625;28;20450;-77
2023/03/20 01:07:27;;;;;;;44.53;36.33;;;;;;;;;;4994753;28;20817;-82
2023/03/20 01:09:55;;;;;;;88.60;60.10;;;;;;;;;;4994639;28;20449;-80
2023/03/20 01:12:23;;;;;;;80.00;50.80;;;;;;;;;;4994656;28;20445;-77
2023/03/20 01:14:53;;;;;;;45.97;37.33;;;8.00;99.90;;;;;;4994502;28;20452;-77
2023/03/20 01:17:23;;;;;;;38.13;34.00;;;8.00;99.90;;;;;;4994498;28;20959;-82
2023/03/20 01:19:50;;;;;;;17.03;14.33;;;;;;;;;;4993180;28;20480;-79
2023/03/20 01:22:17;;;;;;;11.47;8.10;;;;;;;;;;4994090;28;20524;-77
2023/03/20 01:24:45;;;;;;;12.10;10.70;;;;;;;;;;4994578;28;20805;-82
2023/03/20 01:27:14;;;;;;;10.00;9.13;;;7.90;99.90;;;;;;4994564;28;20453;-80
2023/03/20 01:29:42;;;;;;;6.47;5.37;;;;;;;;;;4994463;28;20445;-77
2023/03/20 01:32:12;;;;;;;9.93;8.33;;;;;;;;;;4994310;28;20445;-83
2023/03/20 01:34:39;;;;;;;6.53;5.33;;;;;;;;;;4993151;28;20944;-82
2023/03/20 01:37:10;;;;;;;6.20;4.77;;;;;;;;;;4994328;28;20480;-83
2023/03/20 01:39:37;;;;;;;3.53;2.20;;;8.00;99.90;;;;;;4994254;28;20468;-82
2023/03/20 01:42:06;;;;;;;5.33;4.20;;;8.00;99.90;;;;;;4994140;28;20485;-78
2023/03/20 01:44:35;;;;;;;10.37;9.40;;;7.90;99.90;;;;;;4994193;28;20449;-82
2023/03/20 01:47:03;;;;;;;27.30;24.70;;;;;;;;;;4994154;28;20457;-83
2023/03/20 01:50:07;;;;;;;3.90;3.37;;;7.90;99.90;;;;;;4992786;28;20453;-81
2023/03/20 01:52:34;;;;;;;80.33;44.23;;;;;;;;;;4993901;28;20449;-83
2023/03/20 01:55:02;;;;;;;12.50;11.53;;;;;;;;;;4994091;28;20453;-83
2023/03/20 01:57:29;;;;;;;11.67;9.90;;;;;;;;;;4993694;28;20488;-82
2023/03/20 02:00:00;;;;;;;35.40;31.80;;;;;;;;;;4993861;28;20479;-78
2023/03/20 02:02:29;;;;;;;16.03;15.00;;;;;;;;;;4993860;28;20485;-83
2023/03/20 02:05:01;;;;;;;20.50;18.70;;;7.90;99.90;;;;;;4992634;28;20441;-84
2023/03/20 02:07:28;;;;;;;22.30;20.37;;;;;;;;;;4993861;28;20454;-83
2023/03/20 02:09:56;;;;;;;4.73;4.33;;;;;;;;;;4993788;28;20807;-83
2023/03/20 02:12:23;;;;;;;8.33;7.63;;;;;;;;;;4993762;28;20460;-82
2023/03/20 02:14:51;;;;;;;9.37;8.53;;;;;;;;;;4993534;28;20476;-80
2023/03/20 02:17:20;;;;;;;7.23;6.27;;;;;;;;;;4993677;28;20936;-83
2023/03/20 02:19:54;;;;;;;10.70;9.40;;;7.90;99.90;;;;;;4992389;28;20508;-78
2023/03/20 02:22:38;;;;;;;17.57;16.00;;;7.90;99.90;;;;;;4993382;28;20607;-81
2023/03/20 02:25:47;;;;;;;10.90;8.33;;;7.90;99.90;;;;;;4993538;28;20536;-82
2023/03/20 02:28:44;;;;;;;8.73;6.03;;;7.90;99.90;;;;;;4978474;28;20456;-81
2023/03/20 02:31:17;;;;;;;7.93;5.13;;;;;;;;;;4993556;28;20453;-77
2023/03/20 02:33:54;;;;;;;5.53;4.97;;;;;;;;;;4993638;28;20452;-82
2023/03/20 02:37:08;;;;;;;3.23;2.93;;;7.80;99.90;;;;;;4993521;28;20448;-83
2023/03/20 02:39:53;;;;;;;6.47;5.80;;;;;;;;;;4958614;28;20907;-83
2023/03/20 02:42:29;;;;;;;3.23;2.97;;;7.90;99.90;;;;;;4996977;28;20488;-83
2023/03/20 02:45:05;;;;;;;1.73;1.40;;;7.80;99.90;;;;;;4995207;28;20453;-82
2023/03/20 02:47:41;;;;;;;4.53;4.10;;;7.90;99.90;;;;;;4993349;28;20456;-79
2023/03/20 02:50:16;;;;;;;5.00;4.50;;;7.90;99.90;;;;;;4992214;28;20456;-83
